sensor_id;sensor_type;location;lat;lon;timestamp;P1;durP1;ratioP1;P2;durP2;ratioP2
4676;SDS011;2352;48.180;11.478;2023-04-24T00:01:02;0.63;;;0.60;;
4676;SDS011;2352;48.180;11.478;2023-04-24T00:04:08;0.40;;;0.40;;
4676;SDS011;2352;48.180;11.478;2023-04-24T00:07:13;0.37;;;0.33;;
4676;SDS011;2352;48.180;11.478;2023-04-24T00:10:18;0.57;;;0.57;;
4676;SDS011;2352;48.180;11.478;2023-04-24T00:13:21;0.40;;;0.40;;
4676;SDS011;2352;48.180;11.478;2023-04-24T00:16:24;0.20;;;0.20;;
4676;SDS011;2352;48.180;11.478;2023-04-24T00:19:27;0.50;;;0.50;;
4676;SDS011;2352;48.180;11.478;2023-04-24T00:22:31;2.23;;;0.90;;
4676;SDS011;2352;48.180;11.478;2023-04-24T00:25:34;0.47;;;0.47;;
4676;SDS011;2352;48.180;11.478;2023-04-24T00:28:37;0.40;;;0.40;;
4676;SDS011;2352;48.180;11.478;2023-04-24T00:31:39;0.40;;;0.40;;
4676;SDS011;2352;48.180;11.478;2023-04-24T00:34:42;0.30;;;0.30;;
4676;SDS011;2352;48.180;11.478;2023-04-24T00:37:47;0.33;;;0.33;;
4676;SDS011;2352;48.180;11.478;2023-04-24T00:40:49;0.30;;;0.30;;
4676;SDS011;2352;48.180;11.478;2023-04-24T00:43:52;0.20;;;0.20;;
4676;SDS011;2352;48.180;11.478;2023-04-24T00:46:55;0.60;;;0.60;;
4676;SDS011;2352;48.180;11.478;2023-04-24T00:50:00;0.40;;;0.40;;
4676;SDS011;2352;48.180;11.478;2023-04-24T00:53:05;0.20;;;0.20;;
4676;SDS011;2352;48.180;11.478;2023-04-24T00:56:08;0.30;;;0.30;;
4676;SDS011;2352;48.180;11.478;2023-04-24T00:59:12;2.90;;;0.30;;
4676;SDS011;2352;48.180;11.478;2023-04-24T01:02:15;1.03;;;0.40;;
4676;SDS011;2352;48.180;11.478;2023-04-24T01:05:18;3.30;;;0.40;;
4676;SDS011;2352;48.180;11.478;2023-04-24T01:08:22;0.20;;;0.20;;
4676;SDS011;2352;48.180;11.478;2023-04-24T01:11:26;0.30;;;0.30;;
4676;SDS011;2352;48.180;11.478;2023-04-24T01:14:30;0.50;;;0.30;;
4676;SDS011;2352;48.180;11.478;2023-04-24T01:17:33;0.30;;;0.30;;
4676;SDS011;2352;48.180;11.478;2023-04-24T01:20:36;0.20;;;0.20;;
4676;SDS011;2352;48.180;11.478;2023-04-24T01:23:43;0.40;;;0.30;;
4676;SDS011;2352;48.180;11.478;2023-04-24T01:26:46;0.57;;;0.33;;
4676;SDS011;2352;48.180;11.478;2023-04-24T01:29:49;0.30;;;0.30;;
4676;SDS011;2352;48.180;11.478;2023-04-24T01:32:53;0.80;;;0.60;;
4676;SDS011;2352;48.180;11.478;2023-04-24T01:35:56;0.30;;;0.30;;
4676;SDS011;2352;48.180;11.478;2023-04-24T01:39:00;0.53;;;0.30;;
4676;SDS011;2352;48.180;11.478;2023-04-24T01:42:04;0.30;;;0.20;;
4676;SDS011;2352;48.180;11.478;2023-04-24T01:45:08;0.20;;;0.10;;
4676;SDS011;2352;48.180;11.478;2023-04-24T01:48:13;0.77;;;0.30;;
4676;SDS011;2352;48.180;11.478;2023-04-24T01:51:16;0.20;;;0.20;;
4676;SDS011;2352;48.180;11.478;2023-04-24T01:54:21;0.40;;;0.20;;
4676;SDS011;2352;48.180;11.478;2023-04-24T01:57:24;0.77;;;0.30;;
4676;SDS011;2352;48.180;11.478;2023-04-24T02:00:27;0.27;;;0.27;;
4676;SDS011;2352;48.180;11.478;2023-04-24T02:03:30;0.40;;;0.30;;
4676;SDS011;2352;48.180;11.478;2023-04-24T02:06:33;0.23;;;0.23;;
4676;SDS011;2352;48.180;11.478;2023-04-24T02:09:37;0.23;;;0.23;;
4676;SDS011;2352;48.180;11.478;2023-04-24T02:12:40;0.30;;;0.30;;
4676;SDS011;2352;48.180;11.478;2023-04-24T02:15:43;0.30;;;0.30;;
4676;SDS011;2352;48.180;11.478;2023-04-24T02:18:46;1.80;;;0.30;;
4676;SDS011;2352;48.180;11.478;2023-04-24T02:21:49;0.27;;;0.27;;
4676;SDS011;2352;48.180;11.478;2023-04-24T02:24:53;0.20;;;0.20;;
4676;SDS011;2352;48.180;11.478;2023-04-24T02:27:55;0.30;;;0.30;;
4676;SDS011;2352;48.180;11.478;2023-04-24T02:30:58;0.47;;;0.20;;
4676;SDS011;2352;48.180;11.478;2023-04-24T02:34:01;1.80;;;0.20;;
4676;SDS011;2352;48.180;11.478;2023-04-24T02:37:04;0.40;;;0.30;;
4676;SDS011;2352;48.180;11.478;2023-04-24T02:40:09;2.60;;;0.30;;
4676;SDS011;2352;48.180;11.478;2023-04-24T02:43:12;0.20;;;0.20;;
4676;SDS011;2352;48.180;11.478;2023-04-24T02:46:14;0.40;;;0.30;;
4676;SDS011;2352;48.180;11.478;2023-04-24T02:49:17;0.60;;;0.30;;
4676;SDS011;2352;48.180;11.478;2023-04-24T02:52:20;0.47;;;0.23;;
4676;SDS011;2352;48.180;11.478;2023-04-24T02:55:24;0.30;;;0.30;;
4676;SDS011;2352;48.180;11.478;2023-04-24T02:58:27;0.40;;;0.40;;
4676;SDS011;2352;48.180;11.478;2023-04-24T03:01:30;0.30;;;0.20;;
4676;SDS011;2352;48.180;11.478;2023-04-24T03:04:33;0.23;;;0.20;;
4676;SDS011;2352;48.180;11.478;2023-04-24T03:07:36;0.40;;;0.20;;
4676;SDS011;2352;48.180;11.478;2023-04-24T03:10:40;0.53;;;0.30;;
4676;SDS011;2352;48.180;11.478;2023-04-24T03:13:42;0.70;;;0.40;;
4676;SDS011;2352;48.180;11.478;2023-04-24T03:16:45;0.57;;;0.30;;
4676;SDS011;2352;48.180;11.478;2023-04-24T03:19:48;1.47;;;0.50;;
4676;SDS011;2352;48.180;11.478;2023-04-24T03:22:51;0.53;;;0.20;;
4676;SDS011;2352;48.180;11.478;2023-04-24T03:25:55;0.37;;;0.30;;
4676;SDS011;2352;48.180;11.478;2023-04-24T03:28:58;1.77;;;0.23;;
4676;SDS011;2352;48.180;11.478;2023-04-24T03:32:01;1.27;;;0.23;;
4676;SDS011;2352;48.180;11.478;2023-04-24T03:35:04;0.30;;;0.30;;
4676;SDS011;2352;48.180;11.478;2023-04-24T03:38:07;0.20;;;0.20;;
4676;SDS011;2352;48.180;11.478;2023-04-24T03:41:11;0.23;;;0.20;;
4676;SDS011;2352;48.180;11.478;2023-04-24T03:44:14;0.70;;;0.70;;
4676;SDS011;2352;48.180;11.478;2023-04-24T03:47:17;0.67;;;0.60;;
4676;SDS011;2352;48.180;11.478;2023-04-24T03:50:20;0.83;;;0.50;;
4676;SDS011;2352;48.180;11.478;2023-04-24T03:53:23;0.43;;;0.43;;
4676;SDS011;2352;48.180;11.478;2023-04-24T03:56:27;0.20;;;0.20;;
4676;SDS011;2352;48.180;11.478;2023-04-24T03:59:30;0.50;;;0.40;;
4676;SDS011;2352;48.180;11.478;2023-04-24T04:02:33;0.43;;;0.40;;
4676;SDS011;2352;48.180;11.478;2023-04-24T04:05:36;0.30;;;0.30;;
4676;SDS011;2352;48.180;11.478;2023-04-24T04:08:39;0.23;;;0.23;;
4676;SDS011;2352;48.180;11.478;2023-04-24T04:11:43;0.40;;;0.37;;
4676;SDS011;2352;48.180;11.478;2023-04-24T04:14:46;0.30;;;0.30;;
4676;SDS011;2352;48.180;11.478;2023-04-24T04:17:49;0.40;;;0.40;;
4676;SDS011;2352;48.180;11.478;2023-04-24T04:20:52;0.20;;;0.20;;
4676;SDS011;2352;48.180;11.478;2023-04-24T04:23:54;0.60;;;0.60;;
4676;SDS011;2352;48.180;11.478;2023-04-24T04:26:59;0.30;;;0.30;;
4676;SDS011;2352;48.180;11.478;2023-04-24T04:30:02;0.30;;;0.30;;
4676;SDS011;2352;48.180;11.478;2023-04-24T04:33:06;0.87;;;0.50;;
4676;SDS011;2352;48.180;11.478;2023-04-24T04:36:11;0.93;;;0.50;;
4676;SDS011;2352;48.180;11.478;2023-04-24T04:39:14;0.20;;;0.20;;
4676;SDS011;2352;48.180;11.478;2023-04-24T04:42:19;0.40;;;0.40;;
4676;SDS011;2352;48.180;11.478;2023-04-24T04:45:21;1.23;;;0.40;;
4676;SDS011;2352;48.180;11.478;2023-04-24T04:48:25;0.30;;;0.30;;
4676;SDS011;2352;48.180;11.478;2023-04-24T04:51:28;0.37;;;0.37;;
4676;SDS011;2352;48.180;11.478;2023-04-24T04:54:32;0.30;;;0.30;;
4676;SDS011;2352;48.180;11.478;2023-04-24T04:57:36;0.23;;;0.23;;
4676;SDS011;2352;48.180;11.478;2023-04-24T05:00:39;0.40;;;0.40;;
4676;SDS011;2352;48.180;11.478;2023-04-24T05:03:42;2.97;;;0.57;;
4676;SDS011;2352;48.180;11.478;2023-04-24T05:06:45;0.50;;;0.40;;
4676;SDS011;2352;48.180;11.478;2023-04-24T05:09:49;0.33;;;0.30;;
4676;SDS011;2352;48.180;11.478;2023-04-24T05:12:54;0.30;;;0.13;;
4676;SDS011;2352;48.180;11.478;2023-04-24T05:15:57;0.33;;;0.33;;
4676;SDS011;2352;48.180;11.478;2023-04-24T05:19:00;0.37;;;0.23;;
4676;SDS011;2352;48.180;11.478;2023-04-24T05:22:03;2.30;;;0.20;;
4676;SDS011;2352;48.180;11.478;2023-04-24T05:25:07;0.23;;;0.23;;
4676;SDS011;2352;48.180;11.478;2023-04-24T05:28:12;0.20;;;0.20;;
4676;SDS011;2352;48.180;11.478;2023-04-24T05:31:16;0.30;;;0.30;;
4676;SDS011;2352;48.180;11.478;2023-04-24T05:34:19;0.33;;;0.33;;
4676;SDS011;2352;48.180;11.478;2023-04-24T05:37:22;0.20;;;0.20;;
4676;SDS011;2352;48.180;11.478;2023-04-24T05:40:25;0.23;;;0.23;;
4676;SDS011;2352;48.180;11.478;2023-04-24T05:43:29;1.83;;;0.30;;
4676;SDS011;2352;48.180;11.478;2023-04-24T05:46:31;0.40;;;0.30;;
4676;SDS011;2352;48.180;11.478;2023-04-24T05:49:34;0.93;;;0.40;;
4676;SDS011;2352;48.180;11.478;2023-04-24T05:52:37;0.20;;;0.20;;
4676;SDS011;2352;48.180;11.478;2023-04-24T05:55:40;0.53;;;0.30;;
4676;SDS011;2352;48.180;11.478;2023-04-24T05:58:44;0.20;;;0.20;;
4676;SDS011;2352;48.180;11.478;2023-04-24T06:01:47;1.00;;;0.60;;
4676;SDS011;2352;48.180;11.478;2023-04-24T06:04:50;0.30;;;0.30;;
4676;SDS011;2352;48.180;11.478;2023-04-24T06:07:53;0.43;;;0.30;;
4676;SDS011;2352;48.180;11.478;2023-04-24T06:10:56;0.20;;;0.20;;
4676;SDS011;2352;48.180;11.478;2023-04-24T06:14:00;0.33;;;0.30;;
4676;SDS011;2352;48.180;11.478;2023-04-24T06:17:03;0.20;;;0.20;;
4676;SDS011;2352;48.180;11.478;2023-04-24T06:20:06;0.20;;;0.20;;
4676;SDS011;2352;48.180;11.478;2023-04-24T06:23:09;0.20;;;0.20;;
4676;SDS011;2352;48.180;11.478;2023-04-24T06:26:12;2.37;;;0.60;;
4676;SDS011;2352;48.180;11.478;2023-04-24T06:29:17;0.63;;;0.40;;
4676;SDS011;2352;48.180;11.478;2023-04-24T06:32:20;0.20;;;0.20;;
4676;SDS011;2352;48.180;11.478;2023-04-24T06:35:24;0.20;;;0.20;;
4676;SDS011;2352;48.180;11.478;2023-04-24T06:38:27;0.50;;;0.30;;
4676;SDS011;2352;48.180;11.478;2023-04-24T06:41:30;0.20;;;0.20;;
4676;SDS011;2352;48.180;11.478;2023-04-24T06:44:35;0.20;;;0.20;;
4676;SDS011;2352;48.180;11.478;2023-04-24T06:47:42;0.20;;;0.20;;
4676;SDS011;2352;48.180;11.478;2023-04-24T06:50:45;0.20;;;0.20;;
4676;SDS011;2352;48.180;11.478;2023-04-24T06:53:48;0.60;;;0.40;;
4676;SDS011;2352;48.180;11.478;2023-04-24T06:56:51;0.57;;;0.30;;
4676;SDS011;2352;48.180;11.478;2023-04-24T06:59:55;0.90;;;0.40;;
4676;SDS011;2352;48.180;11.478;2023-04-24T07:02:58;0.20;;;0.20;;
4676;SDS011;2352;48.180;11.478;2023-04-24T07:06:01;0.30;;;0.30;;
4676;SDS011;2352;48.180;11.478;2023-04-24T07:09:05;0.63;;;0.33;;
4676;SDS011;2352;48.180;11.478;2023-04-24T07:12:10;0.20;;;0.20;;
4676;SDS011;2352;48.180;11.478;2023-04-24T07:15:14;0.70;;;0.40;;
4676;SDS011;2352;48.180;11.478;2023-04-24T07:18:18;0.47;;;0.47;;
4676;SDS011;2352;48.180;11.478;2023-04-24T07:21:20;0.53;;;0.30;;
4676;SDS011;2352;48.180;11.478;2023-04-24T07:24:23;0.20;;;0.20;;
4676;SDS011;2352;48.180;11.478;2023-04-24T07:27:27;0.20;;;0.20;;
4676;SDS011;2352;48.180;11.478;2023-04-24T07:30:31;0.10;;;0.10;;
4676;SDS011;2352;48.180;11.478;2023-04-24T07:33:34;0.10;;;0.10;;
4676;SDS011;2352;48.180;11.478;2023-04-24T07:36:37;0.20;;;0.20;;
4676;SDS011;2352;48.180;11.478;2023-04-24T07:39:41;0.20;;;0.20;;
4676;SDS011;2352;48.180;11.478;2023-04-24T07:42:44;0.60;;;0.27;;
4676;SDS011;2352;48.180;11.478;2023-04-24T07:45:50;1.43;;;0.10;;
4676;SDS011;2352;48.180;11.478;2023-04-24T07:48:53;0.30;;;0.20;;
4676;SDS011;2352;48.180;11.478;2023-04-24T07:52:12;1.77;;;0.20;;
4676;SDS011;2352;48.180;11.478;2023-04-24T07:55:16;0.10;;;0.10;;
4676;SDS011;2352;48.180;11.478;2023-04-24T07:58:22;0.40;;;0.20;;
4676;SDS011;2352;48.180;11.478;2023-04-24T08:01:27;0.70;;;0.30;;
4676;SDS011;2352;48.180;11.478;2023-04-24T08:04:29;0.97;;;0.50;;
4676;SDS011;2352;48.180;11.478;2023-04-24T08:07:32;1.10;;;0.13;;
4676;SDS011;2352;48.180;11.478;2023-04-24T08:10:36;0.70;;;0.70;;
4676;SDS011;2352;48.180;11.478;2023-04-24T08:13:39;0.80;;;0.80;;
4676;SDS011;2352;48.180;11.478;2023-04-24T08:16:43;1.30;;;1.23;;
4676;SDS011;2352;48.180;11.478;2023-04-24T08:19:46;2.43;;;0.90;;
4676;SDS011;2352;48.180;11.478;2023-04-24T08:22:49;1.33;;;1.23;;
4676;SDS011;2352;48.180;11.478;2023-04-24T08:25:52;1.10;;;0.80;;
4676;SDS011;2352;48.180;11.478;2023-04-24T08:28:55;0.80;;;0.53;;
4676;SDS011;2352;48.180;11.478;2023-04-24T08:31:59;0.20;;;0.20;;
4676;SDS011;2352;48.180;11.478;2023-04-24T08:35:03;0.20;;;0.20;;
4676;SDS011;2352;48.180;11.478;2023-04-24T08:38:06;1.33;;;0.70;;
4676;SDS011;2352;48.180;11.478;2023-04-24T08:41:09;1.93;;;0.90;;
4676;SDS011;2352;48.180;11.478;2023-04-24T08:44:12;0.50;;;0.50;;
4676;SDS011;2352;48.180;11.478;2023-04-24T08:47:18;2.40;;;1.20;;
4676;SDS011;2352;48.180;11.478;2023-04-24T08:50:22;1.43;;;0.83;;
4676;SDS011;2352;48.180;11.478;2023-04-24T08:53:26;1.53;;;0.80;;
4676;SDS011;2352;48.180;11.478;2023-04-24T08:56:29;0.70;;;0.70;;
4676;SDS011;2352;48.180;11.478;2023-04-24T08:59:32;1.77;;;1.00;;
4676;SDS011;2352;48.180;11.478;2023-04-24T09:02:37;0.70;;;0.70;;
4676;SDS011;2352;48.180;11.478;2023-04-24T09:05:44;0.70;;;0.70;;
4676;SDS011;2352;48.180;11.478;2023-04-24T09:08:50;0.50;;;0.50;;
4676;SDS011;2352;48.180;11.478;2023-04-24T09:11:57;2.00;;;1.23;;
4676;SDS011;2352;48.180;11.478;2023-04-24T09:15:02;0.80;;;0.80;;
4676;SDS011;2352;48.180;11.478;2023-04-24T09:18:06;3.80;;;2.27;;
4676;SDS011;2352;48.180;11.478;2023-04-24T09:21:09;5.30;;;2.03;;
4676;SDS011;2352;48.180;11.478;2023-04-24T09:24:14;3.37;;;1.43;;
4676;SDS011;2352;48.180;11.478;2023-04-24T09:27:18;3.20;;;1.13;;
4676;SDS011;2352;48.180;11.478;2023-04-24T09:30:21;3.50;;;1.83;;
4676;SDS011;2352;48.180;11.478;2023-04-24T09:33:26;2.40;;;1.10;;
4676;SDS011;2352;48.180;11.478;2023-04-24T09:36:29;3.93;;;1.97;;
4676;SDS011;2352;48.180;11.478;2023-04-24T09:39:34;1.23;;;1.00;;
4676;SDS011;2352;48.180;11.478;2023-04-24T09:42:37;2.00;;;1.53;;
4676;SDS011;2352;48.180;11.478;2023-04-24T09:45:40;1.20;;;1.10;;
4676;SDS011;2352;48.180;11.478;2023-04-24T09:48:44;2.40;;;1.00;;
4676;SDS011;2352;48.180;11.478;2023-04-24T09:51:47;1.77;;;1.50;;
4676;SDS011;2352;48.180;11.478;2023-04-24T09:54:52;1.23;;;0.70;;
4676;SDS011;2352;48.180;11.478;2023-04-24T09:57:56;1.27;;;1.10;;
4676;SDS011;2352;48.180;11.478;2023-04-24T10:01:01;4.27;;;0.87;;
4676;SDS011;2352;48.180;11.478;2023-04-24T10:04:05;2.37;;;1.13;;
4676;SDS011;2352;48.180;11.478;2023-04-24T10:07:08;0.50;;;0.50;;
4676;SDS011;2352;48.180;11.478;2023-04-24T10:10:11;1.30;;;0.70;;
4676;SDS011;2352;48.180;11.478;2023-04-24T10:13:14;0.80;;;0.80;;
4676;SDS011;2352;48.180;11.478;2023-04-24T10:16:18;1.10;;;1.00;;
4676;SDS011;2352;48.180;11.478;2023-04-24T10:19:23;3.67;;;1.60;;
4676;SDS011;2352;48.180;11.478;2023-04-24T10:22:28;1.20;;;1.10;;
4676;SDS011;2352;48.180;11.478;2023-04-24T10:25:32;1.43;;;1.33;;
4676;SDS011;2352;48.180;11.478;2023-04-24T10:28:36;0.77;;;0.77;;
4676;SDS011;2352;48.180;11.478;2023-04-24T10:31:39;1.63;;;0.67;;
4676;SDS011;2352;48.180;11.478;2023-04-24T10:34:44;0.57;;;0.57;;
4676;SDS011;2352;48.180;11.478;2023-04-24T10:37:48;1.40;;;1.30;;
4676;SDS011;2352;48.180;11.478;2023-04-24T10:40:57;1.43;;;1.00;;
4676;SDS011;2352;48.180;11.478;2023-04-24T10:44:10;0.83;;;0.83;;
4676;SDS011;2352;48.180;11.478;2023-04-24T10:47:14;3.30;;;0.63;;
4676;SDS011;2352;48.180;11.478;2023-04-24T10:50:18;0.83;;;0.67;;
4676;SDS011;2352;48.180;11.478;2023-04-24T10:53:22;1.93;;;0.67;;
4676;SDS011;2352;48.180;11.478;2023-04-24T10:56:28;2.20;;;0.87;;
4676;SDS011;2352;48.180;11.478;2023-04-24T10:59:35;1.47;;;1.00;;
4676;SDS011;2352;48.180;11.478;2023-04-24T11:02:39;0.60;;;0.60;;
4676;SDS011;2352;48.180;11.478;2023-04-24T11:05:52;0.93;;;0.80;;
4676;SDS011;2352;48.180;11.478;2023-04-24T11:09:01;1.43;;;0.80;;
4676;SDS011;2352;48.180;11.478;2023-04-24T11:12:07;1.17;;;0.50;;
4676;SDS011;2352;48.180;11.478;2023-04-24T11:15:12;1.13;;;0.70;;
4676;SDS011;2352;48.180;11.478;2023-04-24T11:18:18;1.93;;;0.57;;
4676;SDS011;2352;48.180;11.478;2023-04-24T11:21:23;2.07;;;0.97;;
4676;SDS011;2352;48.180;11.478;2023-04-24T11:24:28;3.50;;;0.60;;
4676;SDS011;2352;48.180;11.478;2023-04-24T11:27:39;0.83;;;0.60;;
4676;SDS011;2352;48.180;11.478;2023-04-24T11:30:43;0.53;;;0.50;;
4676;SDS011;2352;48.180;11.478;2023-04-24T11:33:46;0.57;;;0.40;;
4676;SDS011;2352;48.180;11.478;2023-04-24T11:36:51;1.17;;;0.67;;
4676;SDS011;2352;48.180;11.478;2023-04-24T11:39:54;0.93;;;0.40;;
4676;SDS011;2352;48.180;11.478;2023-04-24T11:42:59;2.17;;;0.40;;
4676;SDS011;2352;48.180;11.478;2023-04-24T11:46:02;0.50;;;0.50;;
4676;SDS011;2352;48.180;11.478;2023-04-24T11:49:07;0.40;;;0.40;;
4676;SDS011;2352;48.180;11.478;2023-04-24T11:52:11;0.53;;;0.50;;
4676;SDS011;2352;48.180;11.478;2023-04-24T11:55:24;0.50;;;0.50;;
4676;SDS011;2352;48.180;11.478;2023-04-24T11:58:34;0.70;;;0.63;;
4676;SDS011;2352;48.180;11.478;2023-04-24T12:01:42;0.70;;;0.70;;
4676;SDS011;2352;48.180;11.478;2023-04-24T12:04:46;0.70;;;0.70;;
4676;SDS011;2352;48.180;11.478;2023-04-24T12:07:51;0.50;;;0.50;;
4676;SDS011;2352;48.180;11.478;2023-04-24T12:10:54;0.60;;;0.53;;
4676;SDS011;2352;48.180;11.478;2023-04-24T12:13:57;0.70;;;0.70;;
4676;SDS011;2352;48.180;11.478;2023-04-24T12:17:11;0.70;;;0.70;;
4676;SDS011;2352;48.180;11.478;2023-04-24T12:20:14;0.50;;;0.50;;
4676;SDS011;2352;48.180;11.478;2023-04-24T12:23:28;1.00;;;0.77;;
4676;SDS011;2352;48.180;11.478;2023-04-24T12:26:36;0.50;;;0.50;;
4676;SDS011;2352;48.180;11.478;2023-04-24T12:29:50;1.03;;;0.80;;
4676;SDS011;2352;48.180;11.478;2023-04-24T12:32:56;0.80;;;0.67;;
4676;SDS011;2352;48.180;11.478;2023-04-24T12:36:01;0.50;;;0.50;;
4676;SDS011;2352;48.180;11.478;2023-04-24T12:39:15;0.60;;;0.60;;
4676;SDS011;2352;48.180;11.478;2023-04-24T12:42:25;0.50;;;0.50;;
4676;SDS011;2352;48.180;11.478;2023-04-24T12:45:28;1.23;;;0.53;;
4676;SDS011;2352;48.180;11.478;2023-04-24T12:48:31;0.40;;;0.40;;
4676;SDS011;2352;48.180;11.478;2023-04-24T12:51:34;1.23;;;0.73;;
4676;SDS011;2352;48.180;11.478;2023-04-24T12:54:38;1.23;;;0.60;;
4676;SDS011;2352;48.180;11.478;2023-04-24T12:57:41;0.57;;;0.57;;
4676;SDS011;2352;48.180;11.478;2023-04-24T13:00:44;1.30;;;0.77;;
4676;SDS011;2352;48.180;11.478;2023-04-24T13:03:47;2.30;;;0.83;;
4676;SDS011;2352;48.180;11.478;2023-04-24T13:06:50;1.60;;;0.70;;
4676;SDS011;2352;48.180;11.478;2023-04-24T13:09:54;1.00;;;0.80;;
4676;SDS011;2352;48.180;11.478;2023-04-24T13:12:58;0.93;;;0.77;;
4676;SDS011;2352;48.180;11.478;2023-04-24T13:16:01;0.70;;;0.70;;
4676;SDS011;2352;48.180;11.478;2023-04-24T13:19:04;1.40;;;0.80;;
4676;SDS011;2352;48.180;11.478;2023-04-24T13:22:08;2.90;;;0.67;;
4676;SDS011;2352;48.180;11.478;2023-04-24T13:25:13;3.60;;;1.10;;
4676;SDS011;2352;48.180;11.478;2023-04-24T13:28:18;0.70;;;0.70;;
4676;SDS011;2352;48.180;11.478;2023-04-24T13:31:20;0.50;;;0.50;;
4676;SDS011;2352;48.180;11.478;2023-04-24T13:34:23;2.70;;;0.90;;
4676;SDS011;2352;48.180;11.478;2023-04-24T13:37:27;4.37;;;0.90;;
4676;SDS011;2352;48.180;11.478;2023-04-24T13:40:31;3.07;;;0.97;;
4676;SDS011;2352;48.180;11.478;2023-04-24T13:43:34;1.83;;;0.70;;
4676;SDS011;2352;48.180;11.478;2023-04-24T13:46:37;0.57;;;0.50;;
4676;SDS011;2352;48.180;11.478;2023-04-24T13:49:40;1.07;;;0.70;;
4676;SDS011;2352;48.180;11.478;2023-04-24T13:52:43;0.80;;;0.50;;
4676;SDS011;2352;48.180;11.478;2023-04-24T13:55:47;2.73;;;0.90;;
4676;SDS011;2352;48.180;11.478;2023-04-24T13:58:50;1.43;;;0.60;;
4676;SDS011;2352;48.180;11.478;2023-04-24T14:01:55;1.13;;;0.70;;
4676;SDS011;2352;48.180;11.478;2023-04-24T14:04:58;1.43;;;0.60;;
4676;SDS011;2352;48.180;11.478;2023-04-24T14:08:01;1.37;;;1.10;;
4676;SDS011;2352;48.180;11.478;2023-04-24T14:11:05;0.93;;;0.77;;
4676;SDS011;2352;48.180;11.478;2023-04-24T14:14:08;1.63;;;0.90;;
4676;SDS011;2352;48.180;11.478;2023-04-24T14:17:11;0.83;;;0.73;;
4676;SDS011;2352;48.180;11.478;2023-04-24T14:20:14;0.90;;;0.90;;
4676;SDS011;2352;48.180;11.478;2023-04-24T14:23:17;1.30;;;0.87;;
4676;SDS011;2352;48.180;11.478;2023-04-24T14:26:21;1.07;;;0.90;;
4676;SDS011;2352;48.180;11.478;2023-04-24T14:29:25;4.53;;;1.57;;
4676;SDS011;2352;48.180;11.478;2023-04-24T14:32:28;2.20;;;1.00;;
4676;SDS011;2352;48.180;11.478;2023-04-24T14:35:31;1.73;;;0.90;;
4676;SDS011;2352;48.180;11.478;2023-04-24T14:38:36;0.90;;;0.90;;
4676;SDS011;2352;48.180;11.478;2023-04-24T14:41:40;2.17;;;1.00;;
4676;SDS011;2352;48.180;11.478;2023-04-24T14:44:43;2.33;;;0.90;;
4676;SDS011;2352;48.180;11.478;2023-04-24T14:47:46;1.17;;;1.10;;
4676;SDS011;2352;48.180;11.478;2023-04-24T14:50:49;1.70;;;0.80;;
4676;SDS011;2352;48.180;11.478;2023-04-24T14:53:52;0.80;;;0.70;;
4676;SDS011;2352;48.180;11.478;2023-04-24T14:56:56;0.77;;;0.60;;
4676;SDS011;2352;48.180;11.478;2023-04-24T14:59:59;1.00;;;0.97;;
4676;SDS011;2352;48.180;11.478;2023-04-24T15:03:02;2.37;;;0.90;;
4676;SDS011;2352;48.180;11.478;2023-04-24T15:06:06;2.97;;;0.73;;
4676;SDS011;2352;48.180;11.478;2023-04-24T15:09:09;0.90;;;0.83;;
4676;SDS011;2352;48.180;11.478;2023-04-24T15:12:13;3.60;;;0.70;;
4676;SDS011;2352;48.180;11.478;2023-04-24T15:15:16;1.33;;;0.80;;
4676;SDS011;2352;48.180;11.478;2023-04-24T15:18:19;0.80;;;0.80;;
4676;SDS011;2352;48.180;11.478;2023-04-24T15:21:22;0.77;;;0.70;;
4676;SDS011;2352;48.180;11.478;2023-04-24T15:24:26;0.80;;;0.80;;
4676;SDS011;2352;48.180;11.478;2023-04-24T15:27:39;0.80;;;0.80;;
4676;SDS011;2352;48.180;11.478;2023-04-24T15:30:43;0.70;;;0.70;;
4676;SDS011;2352;48.180;11.478;2023-04-24T15:33:46;0.97;;;0.87;;
4676;SDS011;2352;48.180;11.478;2023-04-24T15:36:50;0.57;;;0.53;;
4676;SDS011;2352;48.180;11.478;2023-04-24T15:39:53;0.93;;;0.60;;
4676;SDS011;2352;48.180;11.478;2023-04-24T15:42:58;1.47;;;0.70;;
4676;SDS011;2352;48.180;11.478;2023-04-24T15:46:01;1.07;;;0.90;;
4676;SDS011;2352;48.180;11.478;2023-04-24T15:49:05;0.60;;;0.60;;
4676;SDS011;2352;48.180;11.478;2023-04-24T15:52:08;1.53;;;1.43;;
4676;SDS011;2352;48.180;11.478;2023-04-24T15:55:11;1.40;;;0.70;;
4676;SDS011;2352;48.180;11.478;2023-04-24T15:58:16;1.53;;;0.70;;
4676;SDS011;2352;48.180;11.478;2023-04-24T16:01:19;0.70;;;0.70;;
4676;SDS011;2352;48.180;11.478;2023-04-24T16:04:23;0.50;;;0.50;;
4676;SDS011;2352;48.180;11.478;2023-04-24T16:07:26;3.97;;;0.60;;
4676;SDS011;2352;48.180;11.478;2023-04-24T16:10:29;0.50;;;0.50;;
4676;SDS011;2352;48.180;11.478;2023-04-24T16:13:34;2.20;;;0.50;;
4676;SDS011;2352;48.180;11.478;2023-04-24T16:16:37;0.63;;;0.60;;
4676;SDS011;2352;48.180;11.478;2023-04-24T16:19:39;1.50;;;0.70;;
4676;SDS011;2352;48.180;11.478;2023-04-24T16:22:42;0.43;;;0.40;;
4676;SDS011;2352;48.180;11.478;2023-04-24T16:25:45;0.40;;;0.40;;
4676;SDS011;2352;48.180;11.478;2023-04-24T16:28:50;0.50;;;0.40;;
4676;SDS011;2352;48.180;11.478;2023-04-24T16:31:53;1.57;;;0.80;;
4676;SDS011;2352;48.180;11.478;2023-04-24T16:34:56;0.40;;;0.40;;
4676;SDS011;2352;48.180;11.478;2023-04-24T16:37:59;0.87;;;0.50;;
4676;SDS011;2352;48.180;11.478;2023-04-24T16:41:02;0.57;;;0.40;;
4676;SDS011;2352;48.180;11.478;2023-04-24T16:44:06;2.13;;;0.40;;
4676;SDS011;2352;48.180;11.478;2023-04-24T16:47:09;1.40;;;0.63;;
4676;SDS011;2352;48.180;11.478;2023-04-24T16:50:14;0.63;;;0.60;;
4676;SDS011;2352;48.180;11.478;2023-04-24T16:53:17;0.40;;;0.40;;
4676;SDS011;2352;48.180;11.478;2023-04-24T16:56:20;0.57;;;0.40;;
4676;SDS011;2352;48.180;11.478;2023-04-24T16:59:24;1.67;;;0.97;;
4676;SDS011;2352;48.180;11.478;2023-04-24T17:02:28;0.50;;;0.43;;
4676;SDS011;2352;48.180;11.478;2023-04-24T17:05:31;0.70;;;0.57;;
4676;SDS011;2352;48.180;11.478;2023-04-24T17:08:35;0.47;;;0.47;;
4676;SDS011;2352;48.180;11.478;2023-04-24T17:11:37;0.60;;;0.53;;
4676;SDS011;2352;48.180;11.478;2023-04-24T17:14:42;0.40;;;0.40;;
4676;SDS011;2352;48.180;11.478;2023-04-24T17:17:45;0.73;;;0.47;;
4676;SDS011;2352;48.180;11.478;2023-04-24T17:20:47;0.60;;;0.40;;
4676;SDS011;2352;48.180;11.478;2023-04-24T17:23:51;0.50;;;0.50;;
4676;SDS011;2352;48.180;11.478;2023-04-24T17:26:54;2.30;;;0.60;;
4676;SDS011;2352;48.180;11.478;2023-04-24T17:30:14;0.50;;;0.50;;
4676;SDS011;2352;48.180;11.478;2023-04-24T17:33:17;0.43;;;0.43;;
4676;SDS011;2352;48.180;11.478;2023-04-24T17:36:20;0.73;;;0.60;;
4676;SDS011;2352;48.180;11.478;2023-04-24T17:39:23;0.50;;;0.50;;
4676;SDS011;2352;48.180;11.478;2023-04-24T17:42:26;0.50;;;0.50;;
4676;SDS011;2352;48.180;11.478;2023-04-24T17:45:30;0.47;;;0.47;;
4676;SDS011;2352;48.180;11.478;2023-04-24T17:48:34;0.77;;;0.77;;
4676;SDS011;2352;48.180;11.478;2023-04-24T17:51:37;0.50;;;0.50;;
4676;SDS011;2352;48.180;11.478;2023-04-24T17:54:40;0.70;;;0.60;;
4676;SDS011;2352;48.180;11.478;2023-04-24T17:57:42;1.43;;;0.60;;
4676;SDS011;2352;48.180;11.478;2023-04-24T18:00:47;0.57;;;0.57;;
4676;SDS011;2352;48.180;11.478;2023-04-24T18:03:49;0.60;;;0.60;;
4676;SDS011;2352;48.180;11.478;2023-04-24T18:06:53;1.07;;;0.63;;
4676;SDS011;2352;48.180;11.478;2023-04-24T18:09:56;0.60;;;0.60;;
4676;SDS011;2352;48.180;11.478;2023-04-24T18:12:59;0.73;;;0.60;;
4676;SDS011;2352;48.180;11.478;2023-04-24T18:16:03;0.93;;;0.70;;
4676;SDS011;2352;48.180;11.478;2023-04-24T18:19:06;0.60;;;0.60;;
4676;SDS011;2352;48.180;11.478;2023-04-24T18:22:09;0.80;;;0.80;;
4676;SDS011;2352;48.180;11.478;2023-04-24T18:25:12;0.97;;;0.70;;
4676;SDS011;2352;48.180;11.478;2023-04-24T18:28:16;0.60;;;0.60;;
4676;SDS011;2352;48.180;11.478;2023-04-24T18:31:20;0.80;;;0.80;;
4676;SDS011;2352;48.180;11.478;2023-04-24T18:34:23;0.50;;;0.50;;
4676;SDS011;2352;48.180;11.478;2023-04-24T18:37:26;0.53;;;0.53;;
4676;SDS011;2352;48.180;11.478;2023-04-24T18:40:29;2.30;;;1.13;;
4676;SDS011;2352;48.180;11.478;2023-04-24T18:43:32;0.97;;;0.90;;